createdAt,value
2022-12-12T00:00:21.624Z,93577.06
2022-12-12T00:02:50.918Z,93588.94
2022-12-12T00:05:20.812Z,93600.78
2022-12-12T00:07:49.985Z,93596.56
2022-12-12T00:10:19.744Z,93595.63
2022-12-12T00:12:49.042Z,93609.97
2022-12-12T00:15:18.025Z,93618.50
2022-12-12T00:17:48.727Z,93623.97
2022-12-12T00:20:18.731Z,93620.44
2022-12-12T00:22:48.940Z,93622.47
2022-12-12T00:25:18.825Z,93625.31
2022-12-12T00:27:49.038Z,93622.56
2022-12-12T00:30:19.240Z,93633.34
2022-12-12T00:32:50.899Z,93622.41
2022-12-12T00:35:20.093Z,93627.84
2022-12-12T00:37:49.107Z,93621.25
2022-12-12T00:40:18.984Z,93623.06
2022-12-12T00:42:47.925Z,93631.13
2022-12-12T00:45:17.744Z,93631.81
2022-12-12T00:47:46.713Z,93623.53
2022-12-12T00:50:18.301Z,93628.63
2022-12-12T00:52:48.109Z,93635.81
2022-12-12T00:55:17.149Z,93646.91
2022-12-12T00:57:46.413Z,93653.88
2022-12-12T01:00:16.979Z,93655.34
2022-12-12T01:02:47.131Z,93657.97
2022-12-12T01:05:18.305Z,93654.91
2022-12-12T01:07:47.442Z,93662.81
2022-12-12T01:10:16.456Z,93659.63
2022-12-12T01:12:46.928Z,93663.81
2022-12-12T01:15:16.285Z,93667.94
2022-12-12T01:17:46.369Z,93663.13
2022-12-12T01:20:22.766Z,93661.25
2022-12-12T01:22:52.451Z,93659.38
2022-12-12T01:25:22.077Z,93662.03
2022-12-12T01:27:51.055Z,93666.38
2022-12-12T01:30:23.949Z,93677.06
2022-12-12T01:32:53.167Z,93672.84
2022-12-12T01:35:24.823Z,93673.97
2022-12-12T01:37:54.463Z,93673.81
2022-12-12T01:40:27.722Z,93678.72
2022-12-12T01:42:57.018Z,93676.75
2022-12-12T01:46:14.615Z,93681.09
2022-12-12T01:48:47.689Z,93661.97
2022-12-12T01:51:22.914Z,93666.59
2022-12-12T01:53:55.856Z,93671.16
2022-12-12T01:56:26.433Z,93671.63
2022-12-12T01:58:56.931Z,93678.09
2022-12-12T02:01:26.514Z,93670.81
2022-12-12T02:03:56.735Z,93669.22
2022-12-12T02:06:28.721Z,93667.84
2022-12-12T02:09:00.941Z,93680.75
2022-12-12T02:11:31.016Z,93687.31
2022-12-12T02:14:01.358Z,93685.06
2022-12-12T02:16:48.067Z,93677.22
2022-12-12T02:19:55.997Z,93677.53
2022-12-12T02:22:45.376Z,93672.53
2022-12-12T02:25:46.054Z,93677.75
2022-12-12T02:28:45.509Z,93673.91
2022-12-12T02:31:23.053Z,93661.09
2022-12-12T02:33:58.842Z,93662.50
2022-12-12T02:36:38.506Z,93657.19
2022-12-12T02:39:15.635Z,93659.16
2022-12-12T02:41:49.076Z,93673.16
2022-12-12T02:44:26.060Z,93670.63
2022-12-12T02:47:02.975Z,93664.72
2022-12-12T02:49:38.459Z,93661.75
2022-12-12T02:52:09.943Z,93667.88
2022-12-12T02:54:39.138Z,93664.94
2022-12-12T02:57:16.759Z,93671.56
2022-12-12T02:59:50.873Z,93663.59
2022-12-12T03:02:51.082Z,93661.19
2022-12-12T03:05:54.476Z,93667.00
2022-12-12T03:08:40.946Z,93667.50
2022-12-12T03:11:14.438Z,93671.78
2022-12-12T03:13:51.487Z,93657.34
2022-12-12T03:16:28.038Z,93668.09
2022-12-12T03:19:05.073Z,93654.06
2022-12-12T03:21:39.703Z,93660.88
2022-12-12T03:24:16.581Z,93659.59
2022-12-12T03:26:50.524Z,93663.00
2022-12-12T03:29:27.300Z,93678.28
2022-12-12T03:32:05.003Z,93682.50
2022-12-12T03:34:41.155Z,93674.94
2022-12-12T03:37:14.786Z,93684.41
2022-12-12T03:39:48.363Z,93688.53
2022-12-12T03:42:22.889Z,93692.53
2022-12-12T03:44:57.969Z,93703.97
2022-12-12T03:47:33.260Z,93710.00
2022-12-12T03:50:09.657Z,93713.50
2022-12-12T03:52:44.818Z,93699.66
2022-12-12T03:55:18.314Z,93712.22
2022-12-12T03:57:53.660Z,93715.03
2022-12-12T04:00:22.946Z,93709.94
2022-12-12T04:02:56.319Z,93713.22
2022-12-12T04:05:31.898Z,93727.88
2022-12-12T04:08:06.457Z,93715.19
2022-12-12T04:11:00.839Z,93718.25
2022-12-12T04:13:35.126Z,93726.94
2022-12-12T04:16:08.104Z,93736.72
2022-12-12T04:18:39.341Z,93735.34
2022-12-12T04:21:41.536Z,93734.19
2022-12-12T04:24:21.901Z,93731.31
2022-12-12T04:26:56.731Z,93733.28
2022-12-12T04:29:36.454Z,93735.75
2022-12-12T04:32:11.890Z,93733.53
2022-12-12T04:34:47.950Z,93734.81
2022-12-12T04:37:22.898Z,93732.72
2022-12-12T04:39:55.912Z,93734.13
2022-12-12T04:42:26.622Z,93732.34
2022-12-12T04:45:03.192Z,93734.81
2022-12-12T04:47:34.313Z,93740.16
2022-12-12T04:50:05.490Z,93735.44
2022-12-12T04:52:37.408Z,93725.09
2022-12-12T04:55:11.962Z,93728.69
2022-12-12T04:57:44.759Z,93729.47
2022-12-12T05:00:15.672Z,93724.97
2022-12-12T05:02:52.960Z,93733.19
2022-12-12T05:05:30.319Z,93736.25
2022-12-12T05:08:08.099Z,93735.53
2022-12-12T05:10:44.160Z,93750.03
2022-12-12T05:13:18.852Z,93753.44
2022-12-12T05:15:49.919Z,93759.34
2022-12-12T05:18:19.167Z,93762.22
2022-12-12T05:20:48.685Z,93751.88
2022-12-12T05:23:20.667Z,93750.81
2022-12-12T05:25:49.695Z,93755.91
2022-12-12T05:28:18.801Z,93761.88
2022-12-12T05:30:51.752Z,93759.03
2022-12-12T05:33:23.123Z,93757.75
2022-12-12T05:35:52.365Z,93762.53
2022-12-12T05:38:23.438Z,93766.97
2022-12-12T05:40:52.501Z,93769.91
2022-12-12T05:43:22.047Z,93761.97
2022-12-12T05:45:51.418Z,93777.31
2022-12-12T05:48:24.314Z,93780.06
2022-12-12T05:50:54.173Z,93776.72
2022-12-12T05:53:25.624Z,93781.94
2022-12-12T05:55:54.866Z,93794.38
2022-12-12T05:58:24.815Z,93783.38
2022-12-12T06:00:57.352Z,93789.66
2022-12-12T06:03:30.903Z,93788.63
2022-12-12T06:06:00.340Z,93799.53
2022-12-12T06:08:31.947Z,93803.25
2022-12-12T06:11:01.322Z,93810.00
2022-12-12T06:13:30.948Z,93812.25
2022-12-12T06:16:00.194Z,93818.44
2022-12-12T06:18:29.493Z,93819.75
2022-12-12T06:21:05.313Z,93817.41
2022-12-12T06:23:37.209Z,93817.84
2022-12-12T06:26:06.857Z,93824.66
2022-12-12T06:28:36.535Z,93822.31
2022-12-12T06:31:11.503Z,93827.75
2022-12-12T06:33:42.193Z,93826.34
2022-12-12T06:36:14.176Z,93828.03
2022-12-12T06:38:45.348Z,93832.03
2022-12-12T06:41:15.971Z,93836.41
2022-12-12T06:43:45.949Z,93837.03
2022-12-12T06:46:17.043Z,93830.16
2022-12-12T06:48:46.245Z,93835.81
2022-12-12T06:51:18.762Z,93847.78
2022-12-12T06:53:49.731Z,93848.84
2022-12-12T06:56:22.831Z,93843.44
2022-12-12T06:58:53.031Z,93845.50
2022-12-12T07:01:24.108Z,93848.31
2022-12-12T07:03:54.076Z,93856.09
2022-12-12T07:06:25.370Z,93860.38
2022-12-12T07:08:56.625Z,93872.88
2022-12-12T07:11:27.131Z,93877.44
2022-12-12T07:13:58.561Z,93863.72
2022-12-12T07:16:28.682Z,93858.94
2022-12-12T07:18:58.518Z,93874.84
2022-12-12T07:21:28.380Z,93878.97
2022-12-12T07:23:59.300Z,93875.53
2022-12-12T07:26:29.629Z,93874.63
2022-12-12T07:28:59.362Z,93878.72
2022-12-12T07:31:29.344Z,93889.75
2022-12-12T07:33:59.439Z,93892.75
2022-12-12T07:36:28.475Z,93895.97
2022-12-12T07:38:59.209Z,93902.25
2022-12-12T07:41:28.311Z,93914.75
2022-12-12T07:43:57.508Z,93918.91
2022-12-12T07:46:27.393Z,93905.53
2022-12-12T07:48:56.735Z,93907.66
2022-12-12T07:51:25.984Z,93905.94
2022-12-12T07:53:55.591Z,93909.31
2022-12-12T07:56:26.187Z,93910.91
2022-12-12T07:58:55.830Z,93912.56
2022-12-12T08:01:27.640Z,93925.19
2022-12-12T08:03:58.301Z,93930.91
2022-12-12T08:06:27.360Z,93931.84
2022-12-12T08:08:56.509Z,93920.19
2022-12-12T08:11:27.731Z,93916.84
2022-12-12T08:13:57.160Z,93914.19
2022-12-12T08:16:28.488Z,93919.25
2022-12-12T08:18:59.406Z,93921.13
2022-12-12T08:21:28.980Z,93919.22
2022-12-12T08:23:58.995Z,93928.56
2022-12-12T08:26:30.783Z,93934.06
2022-12-12T08:29:00.602Z,93936.84
2022-12-12T08:31:30.447Z,93939.56
2022-12-12T08:34:01.349Z,93940.03
2022-12-12T08:36:32.981Z,93932.66
2022-12-12T08:39:06.834Z,93923.63
2022-12-12T08:41:38.663Z,93926.19
2022-12-12T08:44:08.346Z,93920.44
2022-12-12T08:46:38.630Z,93937.94
2022-12-12T08:49:08.751Z,93926.06
2022-12-12T08:51:39.991Z,93922.41
2022-12-12T08:54:10.133Z,93927.53
2022-12-12T08:56:41.010Z,93933.59
2022-12-12T08:59:10.385Z,93925.94
2022-12-12T09:01:41.066Z,93924.81
2022-12-12T09:04:11.770Z,93925.16
2022-12-12T09:06:41.515Z,93944.81
2022-12-12T09:09:10.817Z,93945.94
2022-12-12T09:11:41.425Z,93945.03
2022-12-12T09:14:11.625Z,93947.31
2022-12-12T09:16:41.497Z,93947.88
2022-12-12T09:19:10.646Z,93939.44
2022-12-12T09:21:39.744Z,93946.63
2022-12-12T09:24:09.626Z,93940.44
2022-12-12T09:26:38.834Z,93946.16
2022-12-12T09:29:10.077Z,93944.44
2022-12-12T09:31:39.249Z,93938.97
2022-12-12T09:34:09.826Z,93923.88
2022-12-12T09:36:38.860Z,93917.97
2022-12-12T09:39:08.738Z,93910.53
2022-12-12T09:41:37.959Z,93902.66
2022-12-12T09:44:11.654Z,93899.22
2022-12-12T09:46:43.980Z,93904.13
2022-12-12T09:49:17.714Z,93907.78
2022-12-12T09:51:50.048Z,93914.41
2022-12-12T09:54:22.084Z,93908.13
2022-12-12T09:57:12.628Z,93907.44
2022-12-12T09:59:50.666Z,93893.16
2022-12-12T10:02:41.067Z,93897.63
2022-12-12T10:05:23.657Z,93882.88
2022-12-12T10:08:01.918Z,93858.31
2022-12-12T10:10:35.581Z,93883.44
2022-12-12T10:13:07.850Z,93892.22
2022-12-12T10:15:42.068Z,93880.06
2022-12-12T10:18:21.200Z,93880.94
2022-12-12T10:20:56.276Z,93881.88
2022-12-12T10:23:32.653Z,93880.72
2022-12-12T10:26:05.026Z,93870.03
2022-12-12T10:28:36.726Z,93879.53
2022-12-12T10:31:29.404Z,93879.06
2022-12-12T10:34:18.971Z,93877.69
2022-12-12T10:37:04.456Z,93873.13
2022-12-12T10:39:44.348Z,93878.31
2022-12-12T10:42:25.617Z,93872.59
2022-12-12T10:45:20.758Z,93874.44
2022-12-12T10:47:51.808Z,93871.63
2022-12-12T10:50:30.409Z,93870.16
2022-12-12T10:52:59.541Z,93876.16
2022-12-12T10:55:39.169Z,93870.44
2022-12-12T10:58:08.507Z,93865.66
2022-12-12T11:00:40.178Z,93864.22
2022-12-12T11:03:26.744Z,93863.19
2022-12-12T11:05:56.935Z,93863.09
2022-12-12T11:08:29.514Z,93859.94
2022-12-12T11:11:05.402Z,93868.78
2022-12-12T11:13:42.103Z,93866.28
2022-12-12T11:16:17.380Z,93866.28
2022-12-12T11:19:02.164Z,93863.09
2022-12-12T11:21:34.973Z,93863.03
2022-12-12T11:24:10.941Z,93873.00
2022-12-12T11:26:47.136Z,93878.03
2022-12-12T11:29:30.106Z,93874.75
2022-12-12T11:32:00.739Z,93876.50
2022-12-12T11:34:34.072Z,93872.19
2022-12-12T11:37:04.696Z,93865.91
2022-12-12T11:39:45.314Z,93856.66
2022-12-12T11:42:22.540Z,93848.50
2022-12-12T11:45:01.369Z,93852.66
2022-12-12T11:47:40.107Z,93835.59
2022-12-12T11:50:23.560Z,93828.09
2022-12-12T11:52:55.518Z,93816.44
2022-12-12T11:55:36.430Z,93822.09
2022-12-12T11:58:17.477Z,93829.38
2022-12-12T12:00:56.273Z,93837.66
2022-12-12T12:03:36.857Z,93824.72
2022-12-12T12:06:34.254Z,93825.38
2022-12-12T12:09:26.188Z,93813.16
2022-12-12T12:12:04.057Z,93797.06
2022-12-12T12:14:50.195Z,93775.97
2022-12-12T12:17:30.338Z,93787.53
2022-12-12T12:20:09.661Z,93782.47
2022-12-12T12:22:51.586Z,93790.91
2022-12-12T12:25:39.522Z,93788.19
2022-12-12T12:28:39.896Z,93786.50
2022-12-12T12:31:18.025Z,93779.47
2022-12-12T12:34:01.632Z,93786.63
2022-12-12T12:36:38.379Z,93790.69
2022-12-12T12:39:22.983Z,93791.00
2022-12-12T12:42:08.929Z,93799.44
2022-12-12T12:44:48.229Z,93793.34
2022-12-12T12:47:28.822Z,93781.81
2022-12-12T12:50:07.235Z,93766.38
2022-12-12T12:52:40.898Z,93763.56
2022-12-12T12:55:18.247Z,93763.31
2022-12-12T12:57:50.563Z,93780.41
2022-12-12T13:00:22.073Z,93777.25
2022-12-12T13:02:59.433Z,93786.25
2022-12-12T13:05:35.130Z,93788.31
2022-12-12T13:08:19.212Z,93788.00
2022-12-12T13:10:54.040Z,93794.53
2022-12-12T13:13:26.509Z,93785.25
2022-12-12T13:16:00.267Z,93789.59
2022-12-12T13:18:44.582Z,93801.63
2022-12-12T13:21:25.703Z,93797.59
2022-12-12T13:24:03.569Z,93801.03
2022-12-12T13:26:42.359Z,93814.56
2022-12-12T13:29:29.620Z,93817.91
2022-12-12T13:32:26.286Z,93817.81
2022-12-12T13:34:59.624Z,93810.31
2022-12-12T13:37:33.775Z,93800.47
2022-12-12T13:40:06.193Z,93798.88
2022-12-12T13:42:56.027Z,93807.91
2022-12-12T13:45:41.559Z,93806.53
2022-12-12T13:48:45.930Z,93803.69
2022-12-12T13:51:37.058Z,93801.84
2022-12-12T13:54:52.713Z,93817.69
2022-12-12T13:57:32.403Z,93815.75
2022-12-12T14:00:20.753Z,93817.09
2022-12-12T14:03:09.411Z,93811.78
2022-12-12T14:05:41.680Z,93816.25
2022-12-12T14:08:25.338Z,93830.41
2022-12-12T14:11:01.741Z,93832.81
2022-12-12T14:13:43.201Z,93834.00
2022-12-12T14:16:33.626Z,93829.78
2022-12-12T14:19:06.249Z,93829.00
2022-12-12T14:21:42.133Z,93832.34
2022-12-12T14:24:57.760Z,93850.63
2022-12-12T14:28:03.861Z,93845.50
2022-12-12T14:30:46.380Z,93837.28
2022-12-12T14:33:59.387Z,93846.53
2022-12-12T14:36:52.489Z,93839.81
2022-12-12T14:39:44.850Z,93844.91
2022-12-12T14:42:27.807Z,93839.44
2022-12-12T14:45:27.885Z,93833.03
2022-12-12T14:48:18.369Z,93831.00
2022-12-12T14:51:11.365Z,93841.47
2022-12-12T14:53:48.652Z,93853.75
2022-12-12T14:56:19.946Z,93849.78
2022-12-12T14:58:58.595Z,93854.69
2022-12-12T15:01:35.559Z,93840.78
2022-12-12T15:04:07.591Z,93843.41
2022-12-12T15:06:39.889Z,93845.56
2022-12-12T15:09:29.912Z,93854.75
2022-12-12T15:12:15.128Z,93858.03
2022-12-12T15:14:55.281Z,93848.09
2022-12-12T15:17:29.575Z,93846.91
2022-12-12T15:20:01.253Z,93853.06
2022-12-12T15:22:34.939Z,93858.03
2022-12-12T15:25:15.948Z,93864.09
2022-12-12T15:27:55.367Z,93854.88
2022-12-12T15:30:32.593Z,93858.53
2022-12-12T15:33:03.505Z,93852.38
2022-12-12T15:35:35.663Z,93861.53
2022-12-12T15:38:12.533Z,93869.13
2022-12-12T15:40:42.757Z,93874.19
2022-12-12T15:43:16.225Z,93873.69
2022-12-12T15:45:52.184Z,93874.69
2022-12-12T15:48:21.774Z,93881.16
2022-12-12T15:50:57.398Z,93877.44
2022-12-12T15:53:32.906Z,93886.09
2022-12-12T15:56:05.071Z,93894.59
2022-12-12T15:58:37.171Z,93896.06
2022-12-12T16:01:21.012Z,93902.50
2022-12-12T16:03:56.674Z,93897.88
2022-12-12T16:06:28.930Z,93895.75
2022-12-12T16:09:09.749Z,93897.09
2022-12-12T16:11:45.798Z,93908.03
2022-12-12T16:14:39.509Z,93908.63
2022-12-12T16:17:14.932Z,93899.75
2022-12-12T16:19:48.024Z,93896.91
2022-12-12T16:22:34.173Z,93915.22
2022-12-12T16:25:18.361Z,93920.13
2022-12-12T16:27:51.289Z,93928.72
2022-12-12T16:30:21.641Z,93931.72
2022-12-12T16:32:51.170Z,93931.84
2022-12-12T16:35:23.548Z,93947.41
2022-12-12T16:37:53.908Z,93947.38
2022-12-12T16:40:27.122Z,93964.50
2022-12-12T16:43:07.829Z,93969.41
2022-12-12T16:45:41.115Z,93969.09
2022-12-12T16:48:17.038Z,93984.81
2022-12-12T16:50:47.806Z,93977.41
2022-12-12T16:53:17.540Z,93992.13
2022-12-12T16:55:50.621Z,93993.09
2022-12-12T16:58:21.482Z,93999.72
2022-12-12T17:00:54.176Z,94007.19
2022-12-12T17:03:25.714Z,94005.41
2022-12-12T17:05:58.702Z,94016.84
2022-12-12T17:08:27.925Z,94018.44
2022-12-12T17:11:10.509Z,94014.84
2022-12-12T17:13:46.494Z,94035.34
2022-12-12T17:16:16.341Z,94036.75
2022-12-12T17:18:48.329Z,94044.38
2022-12-12T17:21:23.086Z,94050.19
2022-12-12T17:23:56.082Z,94041.59
2022-12-12T17:26:30.819Z,94053.84
2022-12-12T17:29:07.727Z,94050.66
2022-12-12T17:31:40.793Z,94046.81
2022-12-12T17:34:12.258Z,94054.25
2022-12-12T17:36:44.890Z,94059.47
2022-12-12T17:39:16.180Z,94061.47
2022-12-12T17:41:53.522Z,94064.69
2022-12-12T17:44:26.779Z,94055.06
2022-12-12T17:46:58.263Z,94056.88
2022-12-12T17:49:28.480Z,94069.09
2022-12-12T17:51:58.486Z,94074.53
2022-12-12T17:54:36.068Z,94075.13
2022-12-12T17:57:09.014Z,94087.16
2022-12-12T17:59:40.146Z,94093.59
2022-12-12T18:02:12.270Z,94092.59
2022-12-12T18:04:44.356Z,94106.44
2022-12-12T18:07:14.739Z,94103.22
2022-12-12T18:09:44.144Z,94094.59
2022-12-12T18:12:16.892Z,94106.25
2022-12-12T18:14:46.446Z,94101.19
2022-12-12T18:17:19.444Z,94115.25
2022-12-12T18:19:52.837Z,94109.03
2022-12-12T18:22:22.465Z,94106.41
2022-12-12T18:24:51.656Z,94100.22
2022-12-12T18:27:22.423Z,94101.63
2022-12-12T18:29:51.628Z,94088.78
2022-12-12T18:32:24.255Z,94084.53
2022-12-12T18:34:54.525Z,94091.16
2022-12-12T18:37:27.576Z,94094.59
2022-12-12T18:39:57.888Z,94086.13
2022-12-12T18:42:28.694Z,94084.72
2022-12-12T18:45:00.009Z,94091.34
2022-12-12T18:47:29.335Z,94092.75
2022-12-12T18:49:59.849Z,94098.56
2022-12-12T18:52:29.344Z,94097.38
2022-12-12T18:54:59.258Z,94083.91
2022-12-12T18:57:29.786Z,94078.09
2022-12-12T19:00:00.966Z,94082.13
2022-12-12T19:02:37.663Z,94087.50
2022-12-12T19:05:13.546Z,94086.50
2022-12-12T19:07:44.373Z,94102.00
2022-12-12T19:10:15.246Z,94112.19
2022-12-12T19:12:46.966Z,94110.38
2022-12-12T19:15:17.402Z,94117.81
2022-12-12T19:17:47.205Z,94126.47
2022-12-12T19:20:17.945Z,94112.22
2022-12-12T19:22:49.517Z,94114.22
2022-12-12T19:25:21.163Z,94122.28
2022-12-12T19:27:51.851Z,94122.69
2022-12-12T19:30:21.490Z,94129.91
2022-12-12T19:32:50.663Z,94140.34
2022-12-12T19:35:20.045Z,94133.94
2022-12-12T19:37:50.220Z,94150.56
2022-12-12T19:40:20.055Z,94154.59
2022-12-12T19:42:50.792Z,94157.81
2022-12-12T19:45:20.569Z,94156.41
2022-12-12T19:47:50.550Z,94157.41
2022-12-12T19:50:20.986Z,94151.19
2022-12-12T19:52:50.396Z,94148.56
2022-12-12T19:55:20.536Z,94155.97
2022-12-12T19:57:54.685Z,94152.50
2022-12-12T20:00:26.301Z,94163.16
2022-12-12T20:02:56.242Z,94184.84
2022-12-12T20:05:25.990Z,94176.41
2022-12-12T20:07:56.220Z,94172.94
2022-12-12T20:10:25.484Z,94180.38
2022-12-12T20:12:58.632Z,94191.75
2022-12-12T20:15:28.155Z,94210.81
2022-12-12T20:18:01.218Z,94222.41
2022-12-12T20:20:32.548Z,94222.22
2022-12-12T20:23:01.801Z,94228.38
2022-12-12T20:25:31.327Z,94234.00
2022-12-12T20:28:02.072Z,94226.63
2022-12-12T20:30:33.376Z,94228.06
2022-12-12T20:33:02.719Z,94225.09
2022-12-12T20:35:31.878Z,94214.50
2022-12-12T20:38:00.984Z,94206.94
2022-12-12T20:40:30.384Z,94198.94
2022-12-12T20:43:03.585Z,94201.72
2022-12-12T20:45:39.380Z,94216.13
2022-12-12T20:48:08.711Z,94216.38
2022-12-12T20:50:38.141Z,94218.34
2022-12-12T20:53:11.249Z,94218.56
2022-12-12T20:55:40.044Z,94223.94
2022-12-12T20:58:09.915Z,94213.88
2022-12-12T21:00:41.332Z,94221.50
2022-12-12T21:03:10.572Z,94227.88
2022-12-12T21:05:40.966Z,94230.66
2022-12-12T21:08:10.183Z,94238.31
2022-12-12T21:10:40.396Z,94233.66
2022-12-12T21:13:10.649Z,94226.47
2022-12-12T21:15:43.552Z,94240.88
2022-12-12T21:18:12.699Z,94239.03
2022-12-12T21:20:46.061Z,94252.03
2022-12-12T21:23:21.331Z,94265.34
2022-12-12T21:25:50.767Z,94266.25
2022-12-12T21:28:20.022Z,94268.81
2022-12-12T21:30:50.791Z,94275.22
2022-12-12T21:33:20.719Z,94269.25
2022-12-12T21:35:49.877Z,94284.19
2022-12-12T21:38:19.342Z,94279.06
2022-12-12T21:40:48.407Z,94274.13
2022-12-12T21:43:18.782Z,94276.88
2022-12-12T21:45:48.178Z,94265.78
2022-12-12T21:48:20.023Z,94276.69
2022-12-12T21:50:49.001Z,94282.56
2022-12-12T21:53:36.507Z,94279.03
2022-12-12T21:56:07.518Z,94269.19
2022-12-12T21:58:38.144Z,94280.81
2022-12-12T22:01:09.052Z,94271.63
2022-12-12T22:03:40.024Z,94275.13
2022-12-12T22:06:13.955Z,94291.56
2022-12-12T22:08:44.018Z,94292.38
2022-12-12T22:11:13.524Z,94290.63
2022-12-12T22:13:44.602Z,94295.81
2022-12-12T22:16:19.144Z,94289.63
2022-12-12T22:18:50.989Z,94292.84
2022-12-12T22:21:23.455Z,94284.38
2022-12-12T22:23:55.725Z,94285.63
2022-12-12T22:26:27.274Z,94289.44
2022-12-12T22:28:57.801Z,94291.31
2022-12-12T22:31:29.353Z,94293.91
2022-12-12T22:34:02.116Z,94296.69
2022-12-12T22:36:33.195Z,94303.19
2022-12-12T22:39:03.244Z,94310.63
2022-12-12T22:41:32.492Z,94308.22
2022-12-12T22:44:05.009Z,94313.72
2022-12-12T22:46:36.959Z,94315.25
2022-12-12T22:49:14.735Z,94313.94
2022-12-12T22:51:44.199Z,94313.53
2022-12-12T22:54:13.466Z,94318.78
2022-12-12T22:56:43.245Z,94319.97
2022-12-12T22:59:13.668Z,94320.09
2022-12-12T23:01:43.213Z,94318.78
2022-12-12T23:04:15.245Z,94325.56
2022-12-12T23:06:44.784Z,94319.63
2022-12-12T23:09:16.165Z,94319.03
2022-12-12T23:11:45.859Z,94323.22
2022-12-12T23:14:16.996Z,94321.03
2022-12-12T23:16:46.473Z,94325.47
2022-12-12T23:19:20.348Z,94323.44
2022-12-12T23:21:49.648Z,94326.75
2022-12-12T23:24:18.738Z,94330.56
2022-12-12T23:26:48.595Z,94324.13
2022-12-12T23:29:17.850Z,94328.84
2022-12-12T23:31:47.999Z,94326.56
2022-12-12T23:34:23.325Z,94326.75
2022-12-12T23:36:52.688Z,94340.56
2022-12-12T23:39:22.588Z,94337.97
2022-12-12T23:41:51.834Z,94344.47
2022-12-12T23:44:23.385Z,94347.25
2022-12-12T23:46:52.826Z,94352.50
2022-12-12T23:49:27.006Z,94357.59
2022-12-12T23:51:58.695Z,94351.28
2022-12-12T23:54:32.429Z,94350.84
2022-12-12T23:57:01.794Z,94354.44
2022-12-12T23:59:31.653Z,94346.25
